2006 MONICA (2006106S10153)


On this page: IBTrACS data - Map and Plots - Positions - Intensities - Original source data

Summary

Start Apr 16
End Apr 27
Basins SI
SP
LMI 155 kt
Sources jtwc_sh
bom
neumann
In WMO? Yes
Previous storm 2006 ELIA (SI)
Previous in basin 2006 WATI (SP)
Concurrent storms 2006 ELIA (SI)
2006 MONICA (SP)
2006 MALA (NI)
Next in basin Missing
Next storm 2006 MALA (NI)

top of page IBTrACS Data: File Access

top of page HURSAT Data: File Access

Image of storm

top of page Plots:

Map of storm track will not appear if FTP is down
Time series of cyclone Maximum Sustained Wind will not appear if FTP is down
Time series of cyclone Minimum Central Pressure will not appear if FTP is down

top of page Track Data:Position

jtwc_sh bom neumann
Date Lat Lon Lat Lon Lat Lon
2006-04-16 00:00:00 -9.5 152.5
2006-04-16 06:00:00 -11.1 151.3
2006-04-16 12:00:00 -11.5 151.0
2006-04-16 18:00:00 -11.1 150.8 -11.5 151.0 -11.1 150.8
2006-04-17 00:00:00 -11.7 150.1 -12.3 150.5 -11.7 150.1
2006-04-17 06:00:00 -12.5 149.7 -12.3 149.8 -12.5 149.7
2006-04-17 12:00:00 -12.9 149.1 -12.3 149.4 -12.9 149.1
2006-04-17 18:00:00 -13.0 148.4 -12.5 148.5 -13.0 148.4
2006-04-18 00:00:00 -13.0 147.5 -12.7 148.3 -13.0 147.5
2006-04-18 06:00:00 -13.0 146.6 -13.0 146.5 -13.0 146.6
2006-04-18 12:00:00 -13.0 145.7 -12.7 145.4 -13.0 145.7
2006-04-18 18:00:00 -12.8 144.9 -12.9 144.8 -12.8 144.9
2006-04-19 00:00:00 -12.9 144.1 -13.0 144.3 -12.9 144.1
2006-04-19 06:00:00 -13.3 143.4 -13.2 143.4 -13.3 143.4
2006-04-19 12:00:00 -13.7 142.7 -13.5 142.6 -13.7 142.7
2006-04-19 18:00:00 -13.8 142.0 -13.5 141.9 -13.8 142.0
2006-04-20 00:00:00 -13.9 141.3 -13.7 141.5 -13.9 141.3
2006-04-20 06:00:00 -14.2 140.7 -13.9 140.6 -14.2 140.7
2006-04-20 12:00:00 -14.0 140.4 -13.8 140.4 -14.0 140.4
2006-04-20 18:00:00 -13.7 140.1 -13.6 140.1 -13.7 140.1
2006-04-21 00:00:00 -13.5 140.0 -13.5 140.1 -13.5 140.0
2006-04-21 06:00:00 -13.4 139.8 -13.3 139.9 -13.4 139.8
2006-04-21 12:00:00 -13.1 139.7 -13.1 139.7 -13.1 139.7
2006-04-21 18:00:00 -12.9 139.5 -12.8 139.6 -12.9 139.5
2006-04-22 00:00:00 -12.7 139.3 -12.6 139.4 -12.7 139.3
jtwc_sh bom neumann
2006-04-22 06:00:00 -12.5 139.1 -12.5 139.2 -12.5 139.1
2006-04-22 12:00:00 -12.1 138.7 -12.1 138.8 -12.1 138.7
2006-04-22 18:00:00 -11.7 138.4 -11.8 138.4 -11.7 138.4
2006-04-23 00:00:00 -11.4 138.0 -11.4 138.0 -11.4 138.0
2006-04-23 06:00:00 -11.4 137.4 -11.4 137.4 -11.4 137.4
2006-04-23 12:00:00 -11.3 136.6 -11.3 137.0 -11.3 136.6
2006-04-23 18:00:00 -11.3 135.8 -11.3 135.8 -11.3 135.8
2006-04-24 00:00:00 -11.5 135.1 -11.4 135.2 -11.5 135.1
2006-04-24 06:00:00 -11.7 134.4 -11.7 134.4 -11.7 134.4
2006-04-24 12:00:00 -12.1 133.7 -12.0 133.7 -12.1 133.7
2006-04-24 18:00:00 -12.6 132.7 -12.6 132.9 -12.6 132.7
2006-04-25 00:00:00 -12.5 131.6 -12.5 131.4 -12.5 131.6
2006-04-25 06:00:00 -12.2 130.7 -12.3 130.7 -12.2 130.7
2006-04-25 12:00:00 -12.4 130.2 -12.4 130.5 -12.4 130.2
2006-04-25 18:00:00 -12.9 130.0 -12.7 130.2 -12.9 130.0
2006-04-26 00:00:00 -13.3 129.9 -13.2 129.6 -13.3 129.9
2006-04-26 06:00:00 -13.6 129.6 -13.6 129.4 -13.6 129.6
2006-04-26 12:00:00 -13.9 129.7 -14.0 129.9 -13.9 129.7
2006-04-26 18:00:00 -14.1 129.9 -14.6 130.3 -14.1 129.9
2006-04-27 00:00:00 -15.4 130.8
2006-04-27 06:00:00 -17.1 131.4
2006-04-27 12:00:00 -17.5 131.9
2006-04-27 18:00:00 -17.8 132.6

top of pageTrack Data:Intensity

jtwc_sh bom neumann
Date Wind Pres Wind Pres Wind Pres
2006-04-16 00:00:00 20. 1003.
2006-04-16 06:00:00 20. 1003.
2006-04-16 12:00:00 25. 1003.
2006-04-16 18:00:00 25. 1004. 30. 1000. 25.
2006-04-17 00:00:00 30. 1000. 35. 994. 30.
2006-04-17 06:00:00 40. 994. 35. 994. 40.
2006-04-17 12:00:00 45. 991. 40. 990. 45.
2006-04-17 18:00:00 50. 987. 50. 985. 50.
2006-04-18 00:00:00 50. 987. 55. 980. 50.
2006-04-18 06:00:00 55. 984. 60. 975. 55.
2006-04-18 12:00:00 60. 980. 65. 970. 60.
2006-04-18 18:00:00 70. 972. 70. 965. 70.
2006-04-19 00:00:00 90. 956. 70. 965. 90.
2006-04-19 06:00:00 85. 959. 70. 965. 85.
2006-04-19 12:00:00 70. 972. 65. 970. 70.
2006-04-19 18:00:00 60. 980. 50. 985. 60.
2006-04-20 00:00:00 60. 980. 45. 987. 60.
2006-04-20 06:00:00 60. 978. 45. 987. 60.
2006-04-20 12:00:00 65. 976. 55. 980. 65.
2006-04-20 18:00:00 70. 972. 60. 975. 70.
2006-04-21 00:00:00 80. 963. 65. 971. 80.
2006-04-21 06:00:00 90. 954. 80. 959. 90.
2006-04-21 12:00:00 100. 944. 90. 954. 100.
2006-04-21 18:00:00 110. 933. 90. 953. 110.
2006-04-22 00:00:00 115. 927. 100. 947. 115.
jtwc_sh bom neumann
2006-04-22 06:00:00 125. 916. 110. 935. 125.
2006-04-22 12:00:00 125. 916. 125. 928. 125.
2006-04-22 18:00:00 130. 926. 125. 928. 130.
2006-04-23 00:00:00 140. 898. 125. 929. 140.
2006-04-23 06:00:00 150. 911. 135. 916. 150.
2006-04-23 12:00:00 155. 907. 135. 919. 155.
2006-04-23 18:00:00 155. 879. 135. 917. 155.
2006-04-24 00:00:00 155. 879. 135. 919. 155.
2006-04-24 06:00:00 155. 907. 135. 917. 155.
2006-04-24 12:00:00 115. 937. 90. 954. 115.
2006-04-24 18:00:00 55. 982. 50. 983. 55.
2006-04-25 00:00:00 40. 994. 25. 998. 40.
2006-04-25 06:00:00 30. 1000. 25. 998. 30.
2006-04-25 12:00:00 30. 1000. 30. 998. 30.
2006-04-25 18:00:00 30. 1000. 30. 995. 30.
2006-04-26 00:00:00 25. 1002. 30. 996. 25.
2006-04-26 06:00:00 25. 1002. 30. 995. 25.
2006-04-26 12:00:00 25. 1002. 20. 1000. 25.
2006-04-26 18:00:00 25. 1002. 20. 1002. 25.
2006-04-27 00:00:00 20. 1004.
2006-04-27 06:00:00 20. 1003.
2006-04-27 12:00:00 20. 1005.
2006-04-27 18:00:00 20. 1005.

top of page Links to source data

Source Source file Format
jtwc_sh bsh232006.txt ATCF
bom Newcyclonedatabase-08repair.csv:Line=21504:MONICA CSV file (from Excel file)
neumann tracks.sh:Storm=1351:Monica:BSH232005:JTWC HURDAT